sensor_id;sensor_type;location;lat;lon;timestamp;pressure;altitude;pressure_sealevel;temperature;humidity
75617;BME280;64200;55.426;37.758;2023-07-22T00:03:49;98655.09;;;14.68;61.49
75617;BME280;64200;55.426;37.758;2023-07-22T00:08:50;98641.81;;;14.68;61.24
75617;BME280;64200;55.426;37.758;2023-07-22T00:13:50;98652.81;;;14.61;61.58
75617;BME280;64200;55.426;37.758;2023-07-22T00:18:52;98655.41;;;14.53;62.03
75617;BME280;64200;55.426;37.758;2023-07-22T00:23:54;98653.34;;;14.53;62.00
75617;BME280;64200;55.426;37.758;2023-07-22T00:28:54;98664.84;;;14.50;62.27
75617;BME280;64200;55.426;37.758;2023-07-22T00:33:55;98663.31;;;14.54;61.82
75617;BME280;64200;55.426;37.758;2023-07-22T00:38:55;98663.59;;;14.51;61.98
75617;BME280;64200;55.426;37.758;2023-07-22T00:43:56;98670.78;;;14.40;62.44
75617;BME280;64200;55.426;37.758;2023-07-22T00:48:57;98667.00;;;14.27;63.09
75617;BME280;64200;55.426;37.758;2023-07-22T00:53:57;98681.75;;;14.33;62.99
75617;BME280;64200;55.426;37.758;2023-07-22T00:58:58;98683.56;;;14.30;62.63
75617;BME280;64200;55.426;37.758;2023-07-22T01:04:00;98685.66;;;14.07;63.59
75617;BME280;64200;55.426;37.758;2023-07-22T01:09:01;98687.94;;;14.14;63.43
75617;BME280;64200;55.426;37.758;2023-07-22T01:14:02;98697.13;;;14.15;63.46
75617;BME280;64200;55.426;37.758;2023-07-22T01:19:04;98692.84;;;13.97;64.51
75617;BME280;64200;55.426;37.758;2023-07-22T01:24:06;98680.84;;;14.02;64.33
75617;BME280;64200;55.426;37.758;2023-07-22T01:29:07;98687.22;;;13.97;64.67
75617;BME280;64200;55.426;37.758;2023-07-22T01:34:07;98697.69;;;13.85;65.12
75617;BME280;64200;55.426;37.758;2023-07-22T01:39:08;98706.38;;;13.76;65.31
75617;BME280;64200;55.426;37.758;2023-07-22T01:44:09;98714.00;;;13.75;65.80
75617;BME280;64200;55.426;37.758;2023-07-22T01:49:11;98719.63;;;13.75;65.48
75617;BME280;64200;55.426;37.758;2023-07-22T01:54:12;98721.16;;;13.70;65.81
75617;BME280;64200;55.426;37.758;2023-07-22T01:59:13;98724.47;;;13.75;65.75
75617;BME280;64200;55.426;37.758;2023-07-22T02:04:13;98727.03;;;13.78;65.75
75617;BME280;64200;55.426;37.758;2023-07-22T02:09:14;98727.28;;;13.75;65.58
75617;BME280;64200;55.426;37.758;2023-07-22T02:14:14;98721.94;;;13.71;66.03
75617;BME280;64200;55.426;37.758;2023-07-22T02:19:15;98722.19;;;13.79;66.05
75617;BME280;64200;55.426;37.758;2023-07-22T02:24:16;98728.25;;;13.88;65.71
75617;BME280;64200;55.426;37.758;2023-07-22T02:29:16;98724.19;;;13.90;65.69
75617;BME280;64200;55.426;37.758;2023-07-22T02:34:18;98727.22;;;14.03;65.42
75617;BME280;64200;55.426;37.758;2023-07-22T02:39:19;98745.88;;;13.95;65.63
75617;BME280;64200;55.426;37.758;2023-07-22T02:44:19;98733.88;;;13.88;66.09
75617;BME280;64200;55.426;37.758;2023-07-22T02:49:20;98742.03;;;13.98;65.90
75617;BME280;64200;55.426;37.758;2023-07-22T02:54:21;98733.06;;;14.11;65.72
75617;BME280;64200;55.426;37.758;2023-07-22T02:59:21;98731.78;;;14.29;65.66
75617;BME280;64200;55.426;37.758;2023-07-22T03:04:22;98743.16;;;14.53;65.19
75617;BME280;64200;55.426;37.758;2023-07-22T03:09:23;98737.00;;;14.66;64.68
75617;BME280;64200;55.426;37.758;2023-07-22T03:14:23;98745.91;;;14.76;64.63
75617;BME280;64200;55.426;37.758;2023-07-22T03:19:25;98747.41;;;14.83;64.63
75617;BME280;64200;55.426;37.758;2023-07-22T03:24:26;98737.19;;;14.85;64.78
75617;BME280;64200;55.426;37.758;2023-07-22T03:29:27;98749.50;;;15.18;64.49
75617;BME280;64200;55.426;37.758;2023-07-22T03:34:29;98756.22;;;15.45;63.71
75617;BME280;64200;55.426;37.758;2023-07-22T03:39:30;98758.19;;;15.56;63.12
75617;BME280;64200;55.426;37.758;2023-07-22T03:44:30;98762.91;;;15.73;62.84
75617;BME280;64200;55.426;37.758;2023-07-22T03:49:31;98768.75;;;15.80;62.82
75617;BME280;64200;55.426;37.758;2023-07-22T03:54:31;98772.47;;;15.94;62.46
75617;BME280;64200;55.426;37.758;2023-07-22T03:59:32;98778.81;;;16.01;62.04
75617;BME280;64200;55.426;37.758;2023-07-22T04:04:32;98788.34;;;16.16;61.75
75617;BME280;64200;55.426;37.758;2023-07-22T04:09:33;98776.91;;;16.39;61.41
75617;BME280;64200;55.426;37.758;2023-07-22T04:14:33;98775.19;;;16.55;60.98
75617;BME280;64200;55.426;37.758;2023-07-22T04:19:34;98771.50;;;16.85;60.43
75617;BME280;64200;55.426;37.758;2023-07-22T04:24:34;98784.09;;;17.03;59.56
75617;BME280;64200;55.426;37.758;2023-07-22T04:29:35;98781.13;;;16.95;58.96
75617;BME280;64200;55.426;37.758;2023-07-22T04:34:36;98781.03;;;17.20;58.68
75617;BME280;64200;55.426;37.758;2023-07-22T04:39:37;98786.91;;;17.41;58.72
75617;BME280;64200;55.426;37.758;2023-07-22T04:44:37;98796.25;;;17.49;58.06
75617;BME280;64200;55.426;37.758;2023-07-22T04:49:38;98781.66;;;17.64;57.57
75617;BME280;64200;55.426;37.758;2023-07-22T04:54:39;98793.88;;;17.72;57.52
75617;BME280;64200;55.426;37.758;2023-07-22T04:59:41;98793.31;;;17.93;56.63
75617;BME280;64200;55.426;37.758;2023-07-22T05:04:41;98790.09;;;18.16;56.22
75617;BME280;64200;55.426;37.758;2023-07-22T05:09:42;98802.06;;;18.35;55.85
75617;BME280;64200;55.426;37.758;2023-07-22T05:14:44;98785.66;;;18.34;55.49
75617;BME280;64200;55.426;37.758;2023-07-22T05:19:45;98794.47;;;18.57;55.52
75617;BME280;64200;55.426;37.758;2023-07-22T05:24:45;98793.38;;;18.60;54.26
75617;BME280;64200;55.426;37.758;2023-07-22T05:29:46;98791.31;;;18.87;54.24
75617;BME280;64200;55.426;37.758;2023-07-22T05:34:47;98789.34;;;19.09;52.91
75617;BME280;64200;55.426;37.758;2023-07-22T05:39:47;98797.53;;;19.34;52.89
75617;BME280;64200;55.426;37.758;2023-07-22T05:44:48;98788.03;;;19.44;52.34
75617;BME280;64200;55.426;37.758;2023-07-22T05:49:49;98790.00;;;19.71;51.40
75617;BME280;64200;55.426;37.758;2023-07-22T05:54:49;98781.88;;;19.88;50.80
75617;BME280;64200;55.426;37.758;2023-07-22T05:59:50;98781.38;;;20.18;49.85
75617;BME280;64200;55.426;37.758;2023-07-22T06:04:51;98773.09;;;20.49;49.35
75617;BME280;64200;55.426;37.758;2023-07-22T06:09:51;98775.31;;;20.43;47.02
75617;BME280;64200;55.426;37.758;2023-07-22T06:14:52;98790.31;;;20.59;47.54
75617;BME280;64200;55.426;37.758;2023-07-22T06:19:52;98780.16;;;21.00;47.44
75617;BME280;64200;55.426;37.758;2023-07-22T06:24:52;98789.75;;;21.34;46.87
75617;BME280;64200;55.426;37.758;2023-07-22T06:29:53;98788.88;;;21.54;45.98
75617;BME280;64200;55.426;37.758;2023-07-22T06:34:54;98781.91;;;21.63;46.39
75617;BME280;64200;55.426;37.758;2023-07-22T06:39:54;98786.84;;;22.09;45.09
75617;BME280;64200;55.426;37.758;2023-07-22T06:44:55;98777.34;;;22.22;44.24
75617;BME280;64200;55.426;37.758;2023-07-22T06:49:55;98775.03;;;22.74;43.13
75617;BME280;64200;55.426;37.758;2023-07-22T06:54:56;98767.03;;;22.80;42.53
75617;BME280;64200;55.426;37.758;2023-07-22T06:59:57;98780.13;;;22.76;42.79
75617;BME280;64200;55.426;37.758;2023-07-22T07:04:57;98778.09;;;22.45;41.79
75617;BME280;64200;55.426;37.758;2023-07-22T07:09:58;98772.19;;;23.23;39.93
75617;BME280;64200;55.426;37.758;2023-07-22T07:14:58;98771.59;;;22.76;39.84
75617;BME280;64200;55.426;37.758;2023-07-22T07:19:59;98768.41;;;23.20;39.96
75617;BME280;64200;55.426;37.758;2023-07-22T07:25:00;98783.69;;;23.65;39.27
75617;BME280;64200;55.426;37.758;2023-07-22T07:30:00;98794.81;;;23.79;39.02
75617;BME280;64200;55.426;37.758;2023-07-22T07:35:01;98792.75;;;24.05;38.67
75617;BME280;64200;55.426;37.758;2023-07-22T07:40:02;98794.31;;;24.83;36.70
75617;BME280;64200;55.426;37.758;2023-07-22T07:45:04;98787.44;;;25.86;35.16
75617;BME280;64200;55.426;37.758;2023-07-22T07:50:05;98782.91;;;25.28;35.65
75617;BME280;64200;55.426;37.758;2023-07-22T07:55:07;98788.16;;;24.87;35.86
75617;BME280;64200;55.426;37.758;2023-07-22T08:00:08;98792.03;;;25.17;34.72
75617;BME280;64200;55.426;37.758;2023-07-22T08:05:09;98787.81;;;25.00;34.86
75617;BME280;64200;55.426;37.758;2023-07-22T08:10:10;98801.09;;;24.88;36.11
75617;BME280;64200;55.426;37.758;2023-07-22T08:15:10;98783.97;;;25.50;34.60
75617;BME280;64200;55.426;37.758;2023-07-22T08:20:11;98796.94;;;25.34;35.46
75617;BME280;64200;55.426;37.758;2023-07-22T08:25:11;98799.25;;;27.15;34.68
75617;BME280;64200;55.426;37.758;2023-07-22T08:30:12;98801.78;;;30.59;27.26
75617;BME280;64200;55.426;37.758;2023-07-22T08:35:13;98808.25;;;26.43;30.95
75617;BME280;64200;55.426;37.758;2023-07-22T08:40:13;98790.75;;;26.29;34.26
75617;BME280;64200;55.426;37.758;2023-07-22T08:45:14;98810.69;;;27.44;32.19
75617;BME280;64200;55.426;37.758;2023-07-22T08:50:19;98814.56;;;28.10;28.38
75617;BME280;64200;55.426;37.758;2023-07-22T08:55:21;98804.84;;;26.07;31.37
75617;BME280;64200;55.426;37.758;2023-07-22T09:00:22;98816.78;;;28.21;31.32
75617;BME280;64200;55.426;37.758;2023-07-22T09:05:23;98816.56;;;31.94;24.29
75617;BME280;64200;55.426;37.758;2023-07-22T09:10:24;98810.81;;;32.77;23.06
75617;BME280;64200;55.426;37.758;2023-07-22T09:15:28;98807.31;;;29.38;26.14
75617;BME280;64200;55.426;37.758;2023-07-22T09:20:29;98809.69;;;29.87;27.35
75617;BME280;64200;55.426;37.758;2023-07-22T09:25:30;98812.38;;;33.70;22.07
75617;BME280;64200;55.426;37.758;2023-07-22T09:30:36;98804.19;;;29.91;24.93
75617;BME280;64200;55.426;37.758;2023-07-22T09:35:49;98803.91;;;30.35;26.58
75617;BME280;64200;55.426;37.758;2023-07-22T09:40:49;98810.53;;;34.58;21.01
75617;BME280;64200;55.426;37.758;2023-07-22T09:45:50;98819.88;;;33.91;20.61
75617;BME280;64200;55.426;37.758;2023-07-22T09:50:57;98820.94;;;35.72;19.70
75617;BME280;64200;55.426;37.758;2023-07-22T09:56:03;98823.44;;;33.43;20.62
75617;BME280;64200;55.426;37.758;2023-07-22T10:01:05;98818.28;;;34.70;19.24
75617;BME280;64200;55.426;37.758;2023-07-22T10:06:07;98813.91;;;32.81;21.14
75617;BME280;64200;55.426;37.758;2023-07-22T10:11:08;98815.28;;;34.68;18.75
75617;BME280;64200;55.426;37.758;2023-07-22T10:16:11;98817.59;;;34.71;19.77
75617;BME280;64200;55.426;37.758;2023-07-22T10:21:13;98826.53;;;37.52;16.78
75617;BME280;64200;55.426;37.758;2023-07-22T10:26:17;98821.25;;;33.28;19.17
75617;BME280;64200;55.426;37.758;2023-07-22T10:31:18;98816.38;;;32.31;20.79
75617;BME280;64200;55.426;37.758;2023-07-22T10:36:19;98819.94;;;34.75;18.98
75617;BME280;64200;55.426;37.758;2023-07-22T10:41:20;98829.19;;;36.57;16.57
75617;BME280;64200;55.426;37.758;2023-07-22T10:46:33;98821.63;;;36.08;16.66
75617;BME280;64200;55.426;37.758;2023-07-22T10:51:36;98792.13;;;31.04;21.36
75617;BME280;64200;55.426;37.758;2023-07-22T10:56:38;98812.03;;;31.77;21.61
75617;BME280;64200;55.426;37.758;2023-07-22T11:01:43;98814.75;;;29.20;24.20
75617;BME280;64200;55.426;37.758;2023-07-22T11:11:45;98813.00;;;27.07;28.07
75617;BME280;64200;55.426;37.758;2023-07-22T11:16:46;98824.13;;;26.73;29.09
75617;BME280;64200;55.426;37.758;2023-07-22T11:21:48;98840.22;;;30.16;26.94
75617;BME280;64200;55.426;37.758;2023-07-22T11:26:50;98845.34;;;32.47;20.33
75617;BME280;64200;55.426;37.758;2023-07-22T11:31:51;98824.81;;;28.44;25.21
75617;BME280;64200;55.426;37.758;2023-07-22T11:36:53;98828.06;;;26.68;27.96
75617;BME280;64200;55.426;37.758;2023-07-22T11:41:54;98832.53;;;25.77;29.49
75617;BME280;64200;55.426;37.758;2023-07-22T11:46:59;98831.72;;;25.67;29.87
75617;BME280;64200;55.426;37.758;2023-07-22T12:02:19;98830.56;;;27.62;28.48
75617;BME280;64200;55.426;37.758;2023-07-22T12:12:37;98820.19;;;30.42;23.20
75617;BME280;64200;55.426;37.758;2023-07-22T12:22:46;98807.84;;;27.95;25.87
75617;BME280;64200;55.426;37.758;2023-07-22T12:27:46;98801.34;;;26.56;28.08
75617;BME280;64200;55.426;37.758;2023-07-22T12:32:47;98792.56;;;26.24;29.04
75617;BME280;64200;55.426;37.758;2023-07-22T12:37:48;98782.72;;;26.08;29.39
75617;BME280;64200;55.426;37.758;2023-07-22T12:42:48;98778.84;;;26.23;29.60
75617;BME280;64200;55.426;37.758;2023-07-22T12:47:49;98778.09;;;26.12;29.98
75617;BME280;64200;55.426;37.758;2023-07-22T12:52:49;98770.31;;;25.86;30.53
75617;BME280;64200;55.426;37.758;2023-07-22T12:57:50;98779.06;;;25.33;30.42
75617;BME280;64200;55.426;37.758;2023-07-22T13:02:51;98775.47;;;25.97;30.35
75617;BME280;64200;55.426;37.758;2023-07-22T13:07:51;98781.78;;;25.95;29.81
75617;BME280;64200;55.426;37.758;2023-07-22T13:12:53;98770.84;;;26.02;28.86
75617;BME280;64200;55.426;37.758;2023-07-22T13:17:53;98757.50;;;26.24;29.02
75617;BME280;64200;55.426;37.758;2023-07-22T13:22:54;98751.56;;;26.02;29.32
75617;BME280;64200;55.426;37.758;2023-07-22T13:27:55;98748.38;;;25.98;30.01
75617;BME280;64200;55.426;37.758;2023-07-22T13:32:57;98743.91;;;26.05;29.80
75617;BME280;64200;55.426;37.758;2023-07-22T13:37:57;98745.88;;;25.65;30.19
75617;BME280;64200;55.426;37.758;2023-07-22T13:42:58;98743.16;;;25.30;30.66
75617;BME280;64200;55.426;37.758;2023-07-22T13:47:58;98740.81;;;25.46;30.64
75617;BME280;64200;55.426;37.758;2023-07-22T13:52:59;98741.25;;;25.80;30.71
75617;BME280;64200;55.426;37.758;2023-07-22T13:57:59;98760.75;;;26.01;30.56
75617;BME280;64200;55.426;37.758;2023-07-22T14:03:00;98748.81;;;25.94;30.42
75617;BME280;64200;55.426;37.758;2023-07-22T14:08:01;98765.09;;;25.37;30.99
75617;BME280;64200;55.426;37.758;2023-07-22T14:13:01;98755.00;;;25.09;31.95
75617;BME280;64200;55.426;37.758;2023-07-22T14:18:02;98753.09;;;24.94;32.16
75617;BME280;64200;55.426;37.758;2023-07-22T14:23:03;98757.00;;;25.16;31.99
75617;BME280;64200;55.426;37.758;2023-07-22T14:28:04;98749.88;;;25.07;32.41
75617;BME280;64200;55.426;37.758;2023-07-22T14:33:05;98755.28;;;25.03;32.38
75617;BME280;64200;55.426;37.758;2023-07-22T14:38:05;98743.94;;;24.96;32.93
75617;BME280;64200;55.426;37.758;2023-07-22T14:43:06;98744.44;;;25.02;32.47
75617;BME280;64200;55.426;37.758;2023-07-22T14:48:07;98731.16;;;24.69;32.51
75617;BME280;64200;55.426;37.758;2023-07-22T14:53:07;98728.47;;;24.71;31.72
75617;BME280;64200;55.426;37.758;2023-07-22T14:58:08;98734.06;;;24.44;32.43
75617;BME280;64200;55.426;37.758;2023-07-22T15:03:08;98732.00;;;24.62;32.16
75617;BME280;64200;55.426;37.758;2023-07-22T15:08:09;98737.44;;;24.50;32.04
75617;BME280;64200;55.426;37.758;2023-07-22T15:13:09;98732.56;;;24.43;31.87
75617;BME280;64200;55.426;37.758;2023-07-22T15:18:10;98740.88;;;24.49;32.44
75617;BME280;64200;55.426;37.758;2023-07-22T15:23:10;98735.06;;;24.39;32.09
75617;BME280;64200;55.426;37.758;2023-07-22T15:28:11;98729.84;;;24.28;32.53
75617;BME280;64200;55.426;37.758;2023-07-22T15:33:11;98733.81;;;24.32;32.32
75617;BME280;64200;55.426;37.758;2023-07-22T15:38:13;98717.59;;;24.17;32.70
75617;BME280;64200;55.426;37.758;2023-07-22T15:43:13;98719.31;;;23.95;33.56
75617;BME280;64200;55.426;37.758;2023-07-22T15:48:14;98726.66;;;24.06;33.38
75617;BME280;64200;55.426;37.758;2023-07-22T15:53:15;98730.88;;;24.23;33.48
75617;BME280;64200;55.426;37.758;2023-07-22T15:58:16;98728.72;;;24.06;34.30
75617;BME280;64200;55.426;37.758;2023-07-22T16:03:17;98717.84;;;23.94;34.34
75617;BME280;64200;55.426;37.758;2023-07-22T16:08:17;98735.59;;;23.77;34.90
75617;BME280;64200;55.426;37.758;2023-07-22T16:13:18;98722.94;;;23.45;35.88
75617;BME280;64200;55.426;37.758;2023-07-22T16:18:19;98718.38;;;23.17;36.63
75617;BME280;64200;55.426;37.758;2023-07-22T16:23:19;98729.56;;;23.07;37.14
75617;BME280;64200;55.426;37.758;2023-07-22T16:28:20;98727.91;;;23.37;36.78
75617;BME280;64200;55.426;37.758;2023-07-22T16:33:20;98720.94;;;23.30;37.67
75617;BME280;64200;55.426;37.758;2023-07-22T16:38:21;98717.91;;;23.28;37.84
75617;BME280;64200;55.426;37.758;2023-07-22T16:43:21;98718.94;;;23.15;37.81
75617;BME280;64200;55.426;37.758;2023-07-22T16:48:22;98716.13;;;23.00;38.12
75617;BME280;64200;55.426;37.758;2023-07-22T16:53:22;98726.69;;;22.74;39.08
75617;BME280;64200;55.426;37.758;2023-07-22T16:58:23;98720.72;;;22.39;39.59
75617;BME280;64200;55.426;37.758;2023-07-22T17:03:23;98715.03;;;22.39;40.11
75617;BME280;64200;55.426;37.758;2023-07-22T17:08:24;98716.78;;;22.19;41.36
75617;BME280;64200;55.426;37.758;2023-07-22T17:13:24;98713.97;;;21.96;42.34
75617;BME280;64200;55.426;37.758;2023-07-22T17:18:25;98723.06;;;21.87;42.81
75617;BME280;64200;55.426;37.758;2023-07-22T17:23:26;98740.09;;;21.87;43.34
75617;BME280;64200;55.426;37.758;2023-07-22T17:28:26;98750.09;;;21.88;44.21
75617;BME280;64200;55.426;37.758;2023-07-22T17:33:27;98741.41;;;21.78;44.51
75617;BME280;64200;55.426;37.758;2023-07-22T17:38:27;98740.81;;;21.64;43.96
75617;BME280;64200;55.426;37.758;2023-07-22T17:43:28;98738.53;;;21.63;43.33
75617;BME280;64200;55.426;37.758;2023-07-22T17:48:28;98751.59;;;21.50;43.66
75617;BME280;64200;55.426;37.758;2023-07-22T17:53:29;98747.19;;;21.41;43.57
75617;BME280;64200;55.426;37.758;2023-07-22T17:58:29;98746.03;;;21.29;43.94
75617;BME280;64200;55.426;37.758;2023-07-22T18:03:30;98750.03;;;21.34;44.13
75617;BME280;64200;55.426;37.758;2023-07-22T18:08:30;98762.13;;;21.34;44.21
75617;BME280;64200;55.426;37.758;2023-07-22T18:13:31;98764.19;;;21.26;44.22
75617;BME280;64200;55.426;37.758;2023-07-22T18:18:31;98764.16;;;21.18;44.78
75617;BME280;64200;55.426;37.758;2023-07-22T18:23:32;98762.66;;;21.17;44.72
75617;BME280;64200;55.426;37.758;2023-07-22T18:28:32;98762.50;;;21.23;44.95
75617;BME280;64200;55.426;37.758;2023-07-22T18:33:33;98764.94;;;21.27;44.89
75617;BME280;64200;55.426;37.758;2023-07-22T18:38:33;98778.53;;;21.20;45.26
75617;BME280;64200;55.426;37.758;2023-07-22T18:43:34;98780.56;;;21.04;45.50
75617;BME280;64200;55.426;37.758;2023-07-22T18:48:35;98763.13;;;20.93;45.96
75617;BME280;64200;55.426;37.758;2023-07-22T18:53:35;98770.94;;;21.08;45.77
75617;BME280;64200;55.426;37.758;2023-07-22T18:58:36;98757.47;;;21.00;45.45
75617;BME280;64200;55.426;37.758;2023-07-22T19:03:37;98756.72;;;21.00;45.31
75617;BME280;64200;55.426;37.758;2023-07-22T19:08:37;98756.16;;;21.01;45.53
75617;BME280;64200;55.426;37.758;2023-07-22T19:13:38;98759.53;;;20.92;45.60
75617;BME280;64200;55.426;37.758;2023-07-22T19:18:39;98752.16;;;20.89;46.12
75617;BME280;64200;55.426;37.758;2023-07-22T19:23:39;98749.47;;;20.83;45.70
75617;BME280;64200;55.426;37.758;2023-07-22T19:28:40;98757.75;;;20.74;46.11
75617;BME280;64200;55.426;37.758;2023-07-22T19:33:40;98764.44;;;20.55;46.52
75617;BME280;64200;55.426;37.758;2023-07-22T19:38:42;98767.56;;;20.44;47.23
75617;BME280;64200;55.426;37.758;2023-07-22T19:43:44;98766.00;;;20.35;47.60
75617;BME280;64200;55.426;37.758;2023-07-22T19:48:44;98761.84;;;20.07;48.95
75617;BME280;64200;55.426;37.758;2023-07-22T19:53:45;98764.97;;;19.96;50.41
75617;BME280;64200;55.426;37.758;2023-07-22T19:58:46;98764.97;;;19.96;50.20
75617;BME280;64200;55.426;37.758;2023-07-22T20:03:49;98757.34;;;19.70;51.20
75617;BME280;64200;55.426;37.758;2023-07-22T20:08:49;98755.81;;;19.69;51.93
75617;BME280;64200;55.426;37.758;2023-07-22T20:13:51;98756.81;;;19.71;51.65
75617;BME280;64200;55.426;37.758;2023-07-22T20:18:52;98755.28;;;19.70;51.66
75617;BME280;64200;55.426;37.758;2023-07-22T20:23:53;98750.25;;;19.76;51.74
75617;BME280;64200;55.426;37.758;2023-07-22T20:28:53;98746.19;;;19.85;51.51
75617;BME280;64200;55.426;37.758;2023-07-22T20:33:54;98762.31;;;19.77;51.69
75617;BME280;64200;55.426;37.758;2023-07-22T20:38:57;98762.00;;;19.80;51.38
75617;BME280;64200;55.426;37.758;2023-07-22T20:43:58;98750.94;;;19.69;51.58
75617;BME280;64200;55.426;37.758;2023-07-22T20:48:58;98760.66;;;19.60;52.62
75617;BME280;64200;55.426;37.758;2023-07-22T20:53:59;98771.00;;;19.37;53.06
75617;BME280;64200;55.426;37.758;2023-07-22T20:59:00;98758.88;;;19.15;54.41
75617;BME280;64200;55.426;37.758;2023-07-22T21:04:01;98752.16;;;19.05;53.90
75617;BME280;64200;55.426;37.758;2023-07-22T21:09:02;98760.19;;;19.01;54.28
75617;BME280;64200;55.426;37.758;2023-07-22T21:14:03;98767.41;;;18.88;54.79
75617;BME280;64200;55.426;37.758;2023-07-22T21:19:04;98759.47;;;18.87;54.77
75617;BME280;64200;55.426;37.758;2023-07-22T21:24:04;98763.16;;;18.68;55.90
75617;BME280;64200;55.426;37.758;2023-07-22T21:29:05;98761.88;;;18.56;56.44
75617;BME280;64200;55.426;37.758;2023-07-22T21:34:06;98757.09;;;18.51;56.71
75617;BME280;64200;55.426;37.758;2023-07-22T21:39:06;98757.41;;;18.47;56.69
75617;BME280;64200;55.426;37.758;2023-07-22T21:44:06;98757.66;;;18.49;56.40
75617;BME280;64200;55.426;37.758;2023-07-22T21:49:07;98751.66;;;18.53;56.67
75617;BME280;64200;55.426;37.758;2023-07-22T21:54:08;98752.22;;;18.51;56.33
75617;BME280;64200;55.426;37.758;2023-07-22T21:59:08;98752.84;;;18.44;56.68
75617;BME280;64200;55.426;37.758;2023-07-22T22:04:11;98752.31;;;18.32;57.56
75617;BME280;64200;55.426;37.758;2023-07-22T22:09:12;98749.94;;;18.23;57.41
75617;BME280;64200;55.426;37.758;2023-07-22T22:14:13;98735.06;;;18.09;58.22
75617;BME280;64200;55.426;37.758;2023-07-22T22:19:16;98744.47;;;17.98;58.60
75617;BME280;64200;55.426;37.758;2023-07-22T22:24:16;98753.09;;;17.73;59.53
75617;BME280;64200;55.426;37.758;2023-07-22T22:29:17;98741.31;;;17.56;60.07
75617;BME280;64200;55.426;37.758;2023-07-22T22:34:17;98737.28;;;17.51;60.28
75617;BME280;64200;55.426;37.758;2023-07-22T22:39:18;98746.72;;;17.54;60.31
75617;BME280;64200;55.426;37.758;2023-07-22T22:44:18;98743.00;;;17.46;60.59
75617;BME280;64200;55.426;37.758;2023-07-22T22:49:19;98739.59;;;17.34;61.00
75617;BME280;64200;55.426;37.758;2023-07-22T22:54:19;98746.53;;;17.14;62.07
75617;BME280;64200;55.426;37.758;2023-07-22T22:59:20;98737.63;;;17.10;61.88
75617;BME280;64200;55.426;37.758;2023-07-22T23:04:20;98715.91;;;16.85;62.14
75617;BME280;64200;55.426;37.758;2023-07-22T23:09:21;98745.25;;;16.96;62.55
75617;BME280;64200;55.426;37.758;2023-07-22T23:14:21;98743.28;;;16.91;62.38
75617;BME280;64200;55.426;37.758;2023-07-22T23:19:22;98741.75;;;16.90;62.69
75617;BME280;64200;55.426;37.758;2023-07-22T23:24:22;98741.56;;;16.63;63.72
75617;BME280;64200;55.426;37.758;2023-07-22T23:29:23;98743.78;;;16.70;63.59
75617;BME280;64200;55.426;37.758;2023-07-22T23:34:23;98751.13;;;16.54;64.22
75617;BME280;64200;55.426;37.758;2023-07-22T23:39:24;98733.84;;;16.44;64.48
75617;BME280;64200;55.426;37.758;2023-07-22T23:44:24;98735.25;;;16.32;65.20
75617;BME280;64200;55.426;37.758;2023-07-22T23:49:25;98736.38;;;16.23;65.75
75617;BME280;64200;55.426;37.758;2023-07-22T23:54:26;98730.81;;;16.18;65.83
75617;BME280;64200;55.426;37.758;2023-07-22T23:59:26;98730.81;;;16.18;65.69
